Time;durP1;ratioP1;P1;durP2;ratioP2;P2;SDS_P1;SDS_P2;PMS_P1;PMS_P2;Temp;Humidity;BMP_temperature;BMP_pressure;BME280_temperature;BME280_humidity;BME280_pressure;Samples;Min_cycle;Max_cycle;Signal;HPM_P1;HPM_P2
2021/09/12 00:01:51;;;;;;;4.35;1.70;;;14.80;99.90;;;14.43;100.00;101554.06;4175458;28;20017;-75
2021/09/12 00:03:52;;;;;;;2.47;1.75;;;14.80;99.90;;;14.30;100.00;101543.91;4171323;28;20079;-76
2021/09/12 00:05:53;;;;;;;4.63;2.00;;;14.80;99.90;;;14.43;100.00;101565.53;4161872;28;20079;-76
2021/09/12 00:07:54;;;;;;;4.60;1.80;;;14.80;99.90;;;14.35;100.00;101549.59;4177447;28;20033;-76
2021/09/12 00:09:55;;;;;;;4.05;1.75;;;14.70;99.90;;;14.51;100.00;101575.38;4159197;28;20025;-76
2021/09/12 00:11:56;;;;;;;2.58;1.70;;;14.80;99.90;;;14.27;100.00;101539.75;4160423;28;20516;-76
2021/09/12 00:13:57;;;;;;;2.47;1.92;;;14.70;99.90;;;14.24;100.00;101539.25;4157317;28;20458;-76
2021/09/12 00:15:59;;;;;;;3.45;2.33;;;14.70;99.90;;;14.24;100.00;101540.06;4171434;28;20033;-76
2021/09/12 00:18:00;;;;;;;4.72;2.10;;;14.70;99.90;;;14.33;100.00;101541.81;4173927;28;20041;-77
2021/09/12 00:20:03;;;;;;;3.88;1.80;;;14.70;99.90;;;14.35;100.00;101553.06;4176674;28;20025;-76
2021/09/12 00:22:04;;;;;;;7.78;2.08;;;14.70;99.90;;;14.33;100.00;101540.97;4183907;28;20422;-76
2021/09/12 00:24:05;;;;;;;4.45;1.90;;;14.60;99.90;;;14.37;100.00;101548.44;4166868;28;20064;-76
2021/09/12 00:26:06;;;;;;;3.08;1.80;;;14.60;99.90;;;14.25;100.00;101531.09;4165318;28;20032;-76
2021/09/12 00:28:07;;;;;;;3.83;1.98;;;14.60;99.90;;;14.36;100.00;101553.91;4155340;28;20084;-76
2021/09/12 00:30:09;;;;;;;2.67;2.20;;;14.60;99.90;;;14.27;100.00;101539.75;4167473;28;20116;-75
2021/09/12 00:32:10;;;;;;;2.45;1.88;;;14.60;99.90;;;14.22;100.00;101539.38;4167299;28;20030;-75
2021/09/12 00:34:11;;;;;;;4.63;2.03;;;14.60;99.90;;;14.13;100.00;101521.75;4165024;28;20091;-75
2021/09/12 00:36:12;;;;;;;6.60;2.20;;;14.60;99.90;;;14.20;100.00;101533.41;4162779;28;20461;-75
2021/09/12 00:38:14;;;;;;;3.55;1.88;;;14.60;99.90;;;14.24;100.00;101536.59;4175104;28;20031;-75
2021/09/12 00:40:15;;;;;;;2.30;1.80;;;14.60;99.90;;;14.19;100.00;101526.44;4167357;28;20048;-76
2021/09/12 00:42:16;;;;;;;3.83;2.45;;;14.60;99.90;;;14.23;100.00;101535.75;4153723;28;20022;-75
2021/09/12 00:44:17;;;;;;;2.70;1.90;;;14.60;99.90;;;14.12;100.00;101506.03;4167637;28;20018;-75
2021/09/12 00:46:18;;;;;;;2.97;1.85;;;14.60;99.90;;;14.27;100.00;101538.91;4167280;28;20093;-75
2021/09/12 00:48:20;;;;;;;7.88;2.03;;;14.60;99.90;;;14.30;100.00;101534.13;4177588;28;20416;-75
2021/09/12 00:50:22;;;;;;;3.65;1.90;;;14.60;99.90;;;14.22;100.00;101515.50;4183540;28;20091;-75
2021/09/12 00:52:23;;;;;;;2.58;1.92;;;14.60;99.90;;;14.23;100.00;101533.09;4163213;28;20120;-75
2021/09/12 00:54:25;;;;;;;6.00;1.92;;;14.60;99.90;;;14.33;100.00;101544.44;4167155;28;20400;-76
2021/09/12 00:56:30;;;;;;;2.92;1.83;;;14.60;99.90;;;14.30;100.00;101528.81;4167098;28;20028;-76
2021/09/12 00:58:33;;;;;;;4.28;1.50;;;14.50;99.90;;;14.26;100.00;101519.50;4167024;28;20036;-75
2021/09/12 01:00:34;;;;;;;3.58;2.10;;;14.50;99.90;;;14.31;99.35;101524.31;4167246;28;20029;-75
2021/09/12 01:02:35;;;;;;;3.70;1.80;;;14.50;99.90;;;14.06;100.00;101499.53;4167175;28;20028;-75
2021/09/12 01:04:36;;;;;;;2.03;1.70;;;14.50;99.90;;;14.09;100.00;101514.31;4168098;28;20029;-76
2021/09/12 01:06:38;;;;;;;4.38;1.55;;;14.50;99.90;;;14.02;100.00;101506.13;4167158;28;20026;-76
2021/09/12 01:08:40;;;;;;;3.30;1.80;;;14.40;99.90;;;13.98;100.00;101499.47;4156823;28;20037;-76
2021/09/12 01:10:41;;;;;;;4.10;1.80;;;14.40;99.90;;;13.93;100.00;101483.22;4161889;28;20049;-76
2021/09/12 01:12:42;;;;;;;5.00;2.03;;;14.40;99.90;;;13.83;100.00;101474.56;4198139;28;20043;-76
2021/09/12 01:14:43;;;;;;;5.10;1.65;;;14.30;99.90;;;14.12;100.00;101516.63;4170130;28;20029;-75
2021/09/12 01:16:44;;;;;;;3.97;1.52;;;14.40;99.90;;;13.92;100.00;101486.84;4165682;28;20042;-75
2021/09/12 01:18:47;;;;;;;3.35;1.70;;;14.30;99.90;;;13.80;100.00;101482.81;4170123;28;20022;-75
2021/09/12 01:20:48;;;;;;;4.00;1.52;;;14.30;99.90;;;14.09;100.00;101517.78;4186650;28;20021;-76
2021/09/12 01:22:50;;;;;;;3.47;1.77;;;14.30;99.90;;;14.03;100.00;101505.16;4167831;28;20021;-76
2021/09/12 01:24:52;;;;;;;5.55;1.85;;;14.30;99.90;;;13.78;100.00;101477.69;4182629;28;20025;-76
2021/09/12 01:26:53;;;;;;;4.45;1.60;;;14.30;99.90;;;14.02;100.00;101518.56;4171430;28;20029;-75
2021/09/12 01:28:55;;;;;;;2.80;1.60;;;14.20;99.90;;;13.91;100.00;101501.13;4164651;28;20025;-75
2021/09/12 01:30:56;;;;;;;3.00;1.65;;;14.20;99.90;;;13.83;100.00;101487.81;4169878;28;20033;-76
2021/09/12 01:32:57;;;;;;;3.83;1.75;;;14.20;99.90;;;13.85;100.00;101504.41;4169874;28;20064;-75
2021/09/12 01:34:58;;;;;;;3.33;1.60;;;14.20;99.90;;;13.83;100.00;101507.22;4187640;28;20028;-75
2021/09/12 01:36:59;;;;;;;5.45;2.03;;;14.20;99.90;;;13.79;100.00;101505.06;4169959;28;20034;-75
2021/09/12 01:39:00;;;;;;;3.47;1.63;;;14.20;99.90;;;14.01;100.00;101533.66;4172448;28;20064;-76
2021/09/12 01:41:01;;;;;;;3.40;1.77;;;14.20;99.90;;;13.72;100.00;101494.25;4169915;28;20029;-76
2021/09/12 01:43:02;;;;;;;2.30;1.58;;;14.20;99.90;;;13.87;100.00;101539.56;4176952;28;20028;-76
2021/09/12 01:45:03;;;;;;;5.30;1.85;;;14.10;99.90;;;13.78;100.00;101506.03;4176035;28;20041;-75
2021/09/12 01:47:04;;;;;;;5.10;1.90;;;14.10;99.90;;;13.75;100.00;101523.09;4169647;28;20036;-76
2021/09/12 01:49:06;;;;;;;6.35;1.88;;;14.10;99.90;;;13.76;100.00;101521.28;4169649;28;20428;-75
2021/09/12 01:51:08;;;;;;;2.83;1.80;;;14.10;99.90;;;13.66;100.00;101507.28;4170037;28;20022;-76
2021/09/12 01:53:09;;;;;;;3.25;2.08;;;14.10;99.90;;;13.69;100.00;101525.53;4169760;28;20033;-75
2021/09/12 01:55:10;;;;;;;4.75;2.08;;;14.00;99.90;;;13.74;100.00;101523.22;4153381;28;20473;-75
2021/09/12 01:57:11;;;;;;;3.60;1.50;;;14.10;99.90;;;13.75;100.00;101522.25;4169652;28;20085;-75
2021/09/12 01:59:12;;;;;;;4.55;1.70;;;14.00;99.90;;;13.67;100.00;101514.25;4169707;28;20053;-75
2021/09/12 02:01:13;;;;;;;3.20;1.40;;;14.00;99.90;;;13.65;100.00;101514.41;4170812;28;20026;-76
2021/09/12 02:03:14;;;;;;;3.05;1.60;;;14.00;99.90;;;13.68;100.00;101515.91;4169585;28;20053;-76
2021/09/12 02:05:15;;;;;;;2.42;1.65;;;14.00;99.90;;;13.78;100.00;101525.44;4169481;28;20075;-76
2021/09/12 02:07:16;;;;;;;2.40;1.67;;;14.00;99.90;;;13.64;100.00;101504.81;4159249;28;20555;-76
2021/09/12 02:09:17;;;;;;;3.03;1.92;;;14.00;99.90;;;13.68;100.00;101515.91;4176896;28;20065;-76
2021/09/12 02:11:18;;;;;;;2.60;1.88;;;14.00;99.90;;;13.59;100.00;101511.56;4170635;28;20064;-76
2021/09/12 02:13:20;;;;;;;2.78;1.75;;;14.00;99.90;;;13.48;100.00;101509.16;4169455;28;20041;-76
2021/09/12 02:15:21;;;;;;;2.28;1.52;;;13.90;99.90;;;13.41;100.00;101486.94;4169428;28;20496;-75
2021/09/12 02:17:23;;;;;;;7.00;1.85;;;13.90;99.90;;;13.41;100.00;101481.66;4170456;28;20038;-76
2021/09/12 02:19:24;;;;;;;2.55;1.90;;;13.90;99.90;;;13.70;100.00;101536.00;4181240;28;20021;-76
2021/09/12 02:21:25;;;;;;;4.13;1.90;;;13.90;99.90;;;13.49;100.00;101486.97;4168862;28;20127;-76
2021/09/12 02:23:26;;;;;;;3.65;1.80;;;13.90;99.90;;;13.61;100.00;101520.19;4180958;28;20385;-76
2021/09/12 02:25:27;;;;;;;6.00;2.17;;;13.90;99.90;;;13.72;100.00;101533.16;4162018;28;20061;-76
2021/09/12 02:27:28;;;;;;;2.33;1.85;;;13.90;99.90;;;13.64;100.00;101530.47;4169062;28;20029;-76
2021/09/12 02:29:29;;;;;;;6.65;2.63;;;13.80;99.90;;;13.72;100.00;101543.78;4169879;28;20067;-76
2021/09/12 02:31:30;;;;;;;2.10;1.38;;;13.90;99.90;;;13.64;100.00;101520.72;4170553;28;20036;-75
2021/09/12 02:33:31;;;;;;;3.85;2.10;;;13.90;99.90;;;13.51;100.00;101490.28;4161556;28;20041;-75
2021/09/12 02:35:32;;;;;;;6.43;2.38;;;13.90;99.90;;;13.46;100.00;101479.34;4182554;28;20048;-76
2021/09/12 02:37:33;;;;;;;3.35;1.55;;;14.00;99.90;;;13.48;100.00;101503.84;4185276;28;20036;-75
2021/09/12 02:39:34;;;;;;;5.78;1.60;;;14.00;99.90;;;13.61;100.00;101505.13;4186752;28;20116;-75
2021/09/12 02:41:35;;;;;;;4.60;2.03;;;14.00;99.90;;;13.54;100.00;101501.44;4178104;28;20025;-75
2021/09/12 02:43:36;;;;;;;3.72;1.75;;;14.00;99.90;;;13.69;100.00;101517.56;4181893;28;20116;-75
2021/09/12 02:45:37;;;;;;;2.28;1.55;;;14.00;99.90;;;13.74;100.00;101509.97;4169988;28;20052;-75
2021/09/12 02:47:38;;;;;;;4.93;1.70;;;14.00;99.90;;;13.66;100.00;101516.06;4185554;28;20033;-75
2021/09/12 02:49:39;;;;;;;3.15;1.60;;;14.00;99.90;;;13.68;100.00;101522.03;4177052;28;20029;-75
2021/09/12 02:51:40;;;;;;;2.30;1.42;;;14.00;99.90;;;13.53;100.00;101505.06;4185306;28;20056;-75
2021/09/12 02:53:41;;;;;;;2.65;2.13;;;14.00;99.90;;;13.50;100.00;101497.41;4168798;28;20036;-75
2021/09/12 02:55:42;;;;;;;1.63;1.17;;;13.90;99.90;;;13.59;100.00;101511.56;4185238;28;20029;-75
2021/09/12 02:57:43;;;;;;;3.58;1.50;;;13.90;99.90;;;13.68;100.00;101526.50;4168661;28;20026;-75
2021/09/12 02:59:44;;;;;;;3.50;1.67;;;13.90;99.90;;;13.61;100.00;101498.97;4185185;28;20055;-75
2021/09/12 03:01:45;;;;;;;2.92;2.13;;;14.00;99.90;;;13.55;100.00;101494.31;4171584;28;20021;-76
2021/09/12 03:03:46;;;;;;;2.17;1.20;;;14.00;99.90;;;13.58;100.00;101496.66;4184504;28;20022;-75
2021/09/12 03:05:47;;;;;;;4.03;1.63;;;14.00;99.90;;;13.47;100.00;101473.06;4185904;28;20025;-75
2021/09/12 03:07:48;;;;;;;4.38;1.40;;;14.00;99.90;;;13.50;100.00;101493.97;4173762;28;20028;-75
2021/09/12 03:09:49;;;;;;;3.00;1.33;;;13.90;99.90;;;13.66;100.00;101516.06;4168611;28;20053;-75
2021/09/12 03:11:51;;;;;;;2.30;1.60;;;13.90;99.90;;;13.48;100.00;101495.91;4181120;28;20044;-75
2021/09/12 03:13:53;;;;;;;5.38;1.63;;;13.90;99.90;;;13.69;99.79;101507.81;4168428;28;20100;-75
2021/09/12 03:15:54;;;;;;;6.50;1.70;;;13.90;99.90;;;13.64;99.22;101503.97;4162791;28;20083;-76
2021/09/12 03:17:55;;;;;;;2.63;1.65;;;13.90;99.90;;;13.70;99.68;101516.59;4165749;28;20025;-76
2021/09/12 03:19:56;;;;;;;5.22;1.85;;;13.90;99.90;;;13.45;100.00;101475.03;4185009;28;20108;-75
2021/09/12 03:21:57;;;;;;;4.10;1.50;;;13.90;99.90;;;13.48;100.00;101496.75;4184778;28;20021;-75
2021/09/12 03:23:58;;;;;;;2.72;1.35;;;13.90;99.90;;;13.50;100.00;101497.41;4184971;28;20515;-75
2021/09/12 03:25:59;;;;;;;3.17;1.55;;;13.90;99.90;;;13.72;100.00;101519.91;4184780;28;20036;-75
2021/09/12 03:28:00;;;;;;;3.03;1.40;;;13.90;99.90;;;13.53;99.50;101486.50;4164208;28;20041;-75
2021/09/12 03:30:01;;;;;;;3.42;1.95;;;13.80;99.90;;;13.50;99.23;101486.81;4166156;28;20060;-75
2021/09/12 03:32:02;;;;;;;2.25;1.65;;;13.80;99.90;;;13.44;99.23;101476.03;4178706;28;20059;-75
2021/09/12 03:34:03;;;;;;;2.90;1.90;;;13.80;99.90;;;13.38;99.62;101476.66;4171882;28;20064;-75
2021/09/12 03:36:05;;;;;;;1.83;1.30;;;13.80;99.90;;;13.59;99.23;101511.56;4171502;28;20459;-75
2021/09/12 03:38:07;;;;;;;3.28;1.55;;;13.80;99.90;;;13.40;99.09;101491.41;4197068;28;20096;-76
2021/09/12 03:40:09;;;;;;;1.92;1.63;;;13.80;99.90;;;13.42;99.11;101485.94;4177893;28;20021;-76
2021/09/12 03:42:10;;;;;;;3.00;1.50;;;13.80;99.90;;;13.21;99.15;101460.63;4174584;28;20025;-76
2021/09/12 03:44:12;;;;;;;3.60;2.28;;;13.70;99.90;;;13.22;99.73;101483.50;4176731;28;20488;-76
2021/09/12 03:46:13;;;;;;;4.35;1.20;;;13.70;99.90;;;13.17;99.83;101479.66;4167201;28;20099;-76
2021/09/12 03:48:14;;;;;;;4.82;1.77;;;13.70;99.90;;;13.29;100.00;101500.44;4175378;28;20037;-75
2021/09/12 03:50:15;;;;;;;2.83;1.48;;;13.70;99.90;;;13.41;100.00;101508.13;4164723;28;20030;-75
2021/09/12 03:52:16;;;;;;;3.72;1.75;;;13.70;99.90;;;13.26;100.00;101487.50;4167911;28;20412;-75
2021/09/12 03:54:17;;;;;;;2.45;1.27;;;13.70;99.90;;;13.29;100.00;101495.13;4179202;28;20040;-75
2021/09/12 03:56:18;;;;;;;2.38;1.50;;;13.60;99.90;;;13.19;99.63;101482.97;4177624;28;20029;-75
2021/09/12 03:58:19;;;;;;;4.45;2.30;;;13.60;99.90;;;13.40;99.51;101502.00;4172594;28;20392;-76
2021/09/12 04:00:20;;;;;;;4.75;1.60;;;13.70;99.90;;;13.22;99.68;101474.72;4168019;28;21358;-75
2021/09/12 04:02:21;;;;;;;2.00;1.27;;;13.70;99.90;;;13.29;99.64;101505.72;4168581;28;20045;-75
2021/09/12 04:04:22;;;;;;;2.88;1.98;;;13.60;99.90;;;13.26;100.00;101500.72;4182243;28;20025;-75
2021/09/12 04:06:23;;;;;;;4.72;2.03;;;13.60;99.90;;;13.36;100.00;101526.31;4180329;28;20561;-75
2021/09/12 04:08:23;;;;;;;3.67;1.40;;;13.60;99.90;;;13.31;99.87;101502.94;4184092;28;20120;-76
2021/09/12 04:10:25;;;;;;;3.58;1.50;;;13.60;99.90;;;13.24;99.77;101486.81;4184226;28;20059;-76
2021/09/12 04:12:26;;;;;;;2.33;1.40;;;13.60;99.90;;;13.22;100.00;101511.81;4160924;28;20517;-75
2021/09/12 04:14:27;;;;;;;3.55;1.55;;;13.50;99.90;;;13.01;100.00;101490.94;4151300;28;20033;-76
2021/09/12 04:16:29;;;;;;;3.10;2.05;;;13.50;99.90;;;13.00;100.00;101478.66;4167435;28;20091;-76
2021/09/12 04:18:30;;;;;;;3.45;1.35;;;13.50;99.90;;;13.21;100.00;101499.53;4168620;28;20037;-76
2021/09/12 04:20:31;;;;;;;2.55;1.90;;;13.50;99.90;;;13.18;100.00;101490.09;4167636;28;20025;-76
2021/09/12 04:22:32;;;;;;;4.28;1.90;;;13.50;99.90;;;13.19;100.00;101499.72;4163634;28;20026;-76
2021/09/12 04:24:33;;;;;;;2.35;1.88;;;13.50;99.90;;;13.19;100.00;101510.31;4151134;28;20547;-76
2021/09/12 04:26:34;;;;;;;3.72;1.85;;;13.50;99.90;;;13.09;100.00;101503.41;4167521;28;20033;-76
2021/09/12 04:28:35;;;;;;;3.13;2.00;;;13.50;99.90;;;12.97;100.00;101473.66;4167662;28;20551;-76
2021/09/12 04:30:36;;;;;;;2.88;1.50;;;13.50;99.90;;;13.05;100.00;101502.06;4163304;28;20103;-76
2021/09/12 04:32:37;;;;;;;5.90;1.92;;;13.40;99.90;;;13.02;100.00;101505.81;4184305;28;20060;-75
2021/09/12 04:34:38;;;;;;;2.42;1.42;;;13.40;99.90;;;12.94;100.00;101494.31;4183899;28;20154;-75
2021/09/12 04:36:39;;;;;;;2.20;1.33;;;13.30;99.90;;;12.92;100.00;101485.72;4185082;28;20388;-75
2021/09/12 04:38:40;;;;;;;2.30;2.05;;;13.30;99.90;;;12.84;100.00;101485.66;4183673;28;20029;-75
2021/09/12 04:40:40;;;;;;;4.20;2.35;;;13.30;99.90;;;12.83;100.00;101503.34;4167016;28;20048;-75
2021/09/12 04:42:41;;;;;;;3.55;1.67;;;13.30;99.90;;;12.81;100.00;101491.25;4166671;28;20120;-75
2021/09/12 04:44:42;;;;;;;3.00;2.20;;;13.30;99.90;;;12.85;100.00;101496.06;4167496;28;20122;-76
2021/09/12 04:46:43;;;;;;;2.65;1.90;;;13.30;99.90;;;13.05;100.00;101508.16;4177921;28;20565;-75
2021/09/12 04:48:44;;;;;;;3.38;1.88;;;13.30;99.90;;;13.00;100.00;101505.16;4170622;28;20108;-75
2021/09/12 04:50:45;;;;;;;3.28;1.98;;;13.30;99.90;;;13.01;100.00;101511.28;4167521;28;20570;-75
2021/09/12 04:52:47;;;;;;;2.45;1.70;;;13.30;99.90;;;13.04;100.00;101503.84;4167471;28;20469;-75
2021/09/12 04:54:48;;;;;;;3.60;1.70;;;13.30;99.90;;;13.02;100.00;101502.34;4161137;28;20111;-75
2021/09/12 04:56:49;;;;;;;4.72;2.17;;;13.40;99.90;;;13.11;100.00;101517.38;4180644;28;20025;-75
2021/09/12 04:58:50;;;;;;;2.47;1.80;;;13.40;99.90;;;12.95;100.00;101483.59;4183645;28;20064;-76
2021/09/12 05:00:51;;;;;;;2.65;2.05;;;13.40;99.90;;;13.07;100.00;101489.47;4167324;28;20069;-75
2021/09/12 05:02:52;;;;;;;3.78;2.00;;;13.50;99.90;;;13.17;100.00;101491.06;4177232;28;20033;-76
2021/09/12 05:04:53;;;;;;;2.58;1.75;;;13.50;99.90;;;13.10;100.00;101478.59;4166835;28;20120;-76
2021/09/12 05:06:54;;;;;;;3.45;1.83;;;13.50;99.90;;;13.14;100.00;101496.66;4184667;28;20029;-76
2021/09/12 05:08:55;;;;;;;4.10;1.60;;;13.50;99.90;;;13.28;100.00;101516.50;4183848;28;20036;-76
2021/09/12 05:10:56;;;;;;;3.95;1.85;;;13.50;99.90;;;13.19;100.00;101502.34;4167124;28;20092;-75
2021/09/12 05:12:57;;;;;;;3.08;1.60;;;13.50;99.90;;;13.11;100.00;101483.72;4171787;28;20065;-75
2021/09/12 05:14:58;;;;;;;5.03;2.17;;;13.50;99.90;;;13.11;100.00;101483.72;4166559;28;20040;-76
2021/09/12 05:16:59;;;;;;;2.00;1.60;;;13.60;99.90;;;13.19;100.00;101488.28;4160859;28;20026;-76
2021/09/12 05:19:00;;;;;;;4.95;2.17;;;13.60;99.90;;;13.18;100.00;101481.31;4159905;28;20110;-76
2021/09/12 05:21:01;;;;;;;1.92;1.73;;;13.60;99.90;;;13.17;100.00;101472.53;4184722;28;20032;-75
2021/09/12 05:23:02;;;;;;;3.75;1.50;;;13.60;99.90;;;13.15;100.00;101468.38;4183412;28;20418;-76
2021/09/12 05:25:03;;;;;;;2.20;1.60;;;13.60;99.90;;;13.02;100.00;101436.94;4183289;28;20028;-76
2021/09/12 05:27:04;;;;;;;4.97;1.75;;;13.60;99.90;;;13.35;100.00;101498.97;4183185;28;20029;-75
2021/09/12 05:29:05;;;;;;;4.38;1.80;;;13.60;99.90;;;13.14;100.00;101472.03;4183576;28;20025;-75
2021/09/12 05:31:07;;;;;;;1.90;1.70;;;13.60;99.90;;;13.10;100.00;101468.84;4183245;28;20041;-76
2021/09/12 05:33:07;;;;;;;3.80;1.60;;;13.60;99.90;;;13.07;100.00;101477.06;4183259;28;20021;-75
2021/09/12 05:35:09;;;;;;;2.10;1.40;;;13.60;99.90;;;13.15;100.00;101490.41;4183422;28;20084;-75
2021/09/12 05:37:12;;;;;;;2.05;1.45;;;13.60;99.90;;;13.22;100.00;101499.41;4155022;28;20101;-76
2021/09/12 05:39:13;;;;;;;1.67;1.50;;;13.60;99.90;;;13.29;100.00;101508.38;4182245;28;20021;-75
2021/09/12 05:41:14;;;;;;;2.88;1.52;;;13.60;99.90;;;13.24;100.00;101501.88;4166732;28;20079;-76
2021/09/12 05:43:15;;;;;;;3.78;1.83;;;13.60;99.90;;;13.27;100.00;101507.72;4191070;28;20104;-75
2021/09/12 05:45:16;;;;;;;4.28;1.55;;;13.60;99.90;;;13.26;100.00;101503.38;4167097;28;20053;-75
2021/09/12 05:47:17;;;;;;;2.28;1.60;;;13.60;99.90;;;13.27;99.99;101501.56;4165732;28;20033;-76
2021/09/12 05:49:20;;;;;;;2.75;2.17;;;13.60;99.90;;;13.38;100.00;101524.34;4172129;28;20063;-76
2021/09/12 05:51:21;;;;;;;4.70;2.50;;;13.60;99.90;;;13.47;100.00;101512.81;4184477;28;20110;-75
2021/09/12 05:53:24;;;;;;;2.53;2.17;;;13.60;99.90;;;13.34;100.00;101520.34;4166808;28;20116;-75
2021/09/12 05:55:25;;;;;;;4.80;2.00;;;13.60;99.90;;;13.24;100.00;101515.97;4183800;28;20036;-75
2021/09/12 05:57:26;;;;;;;5.90;1.98;;;13.60;99.90;;;13.09;100.00;101504.25;4187462;28;20108;-76
2021/09/12 05:59:27;;;;;;;3.50;2.00;;;13.60;99.90;;;13.19;100.00;101536.81;4186214;28;20017;-75
2021/09/12 06:01:28;;;;;;;3.22;2.30;;;13.60;99.90;;;13.13;100.00;101516.22;4157753;28;20054;-75
2021/09/12 06:03:29;;;;;;;2.55;2.03;;;13.50;99.90;;;13.04;100.00;101510.97;4169300;28;20048;-75
2021/09/12 06:05:30;;;;;;;4.20;2.53;;;13.50;99.90;;;12.94;100.00;101511.03;4169572;28;20041;-75
2021/09/12 06:07:31;;;;;;;3.00;2.10;;;13.50;99.90;;;12.94;100.00;101494.31;4170707;28;20030;-75
2021/09/12 06:09:32;;;;;;;2.63;1.98;;;13.50;99.90;;;13.13;100.00;101525.97;4169438;28;20037;-75
2021/09/12 06:11:33;;;;;;;4.50;2.50;;;13.50;99.90;;;13.12;100.00;101514.53;4170441;28;20049;-75
2021/09/12 06:13:34;;;;;;;2.67;2.00;;;13.50;99.90;;;13.08;100.00;101501.78;4169485;28;20040;-76
2021/09/12 06:15:35;;;;;;;3.92;2.40;;;13.60;99.90;;;13.13;100.00;101502.97;4177770;28;20451;-75
2021/09/12 06:17:36;;;;;;;2.95;2.05;;;13.60;99.90;;;12.96;100.00;101479.13;4169327;28;20037;-75
2021/09/12 06:19:38;;;;;;;3.00;2.13;;;13.60;99.90;;;13.14;100.00;101472.81;4185442;28;20507;-75
2021/09/12 06:21:39;;;;;;;4.75;2.10;;;13.70;99.90;;;13.51;100.00;101522.94;4180657;28;20088;-75
2021/09/12 06:23:40;;;;;;;3.97;2.10;;;13.70;99.90;;;13.52;100.00;101531.72;4160530;28;20033;-75
2021/09/12 06:25:41;;;;;;;2.83;2.22;;;13.80;99.90;;;13.48;100.00;101503.84;4169148;28;20500;-75
2021/09/12 06:27:42;;;;;;;2.60;1.92;;;13.90;99.90;;;13.29;100.00;101487.19;4163797;28;20029;-75
2021/09/12 06:29:43;;;;;;;3.15;2.22;;;13.90;99.90;;;13.63;100.00;101512.91;4177216;28;20049;-76
2021/09/12 06:31:44;;;;;;;2.20;1.67;;;13.90;99.90;;;13.47;100.00;101488.97;4173190;28;20025;-76
2021/09/12 06:33:45;;;;;;;3.03;2.55;;;13.90;99.90;;;13.34;100.00;101486.72;4176934;28;20036;-76
2021/09/12 06:35:46;;;;;;;2.42;1.80;;;13.90;99.90;;;13.30;100.00;101493.31;4168844;28;20525;-75
2021/09/12 06:37:47;;;;;;;4.32;1.88;;;13.90;99.90;;;13.41;100.00;101505.50;4169087;28;20044;-75
2021/09/12 06:39:48;;;;;;;4.07;2.10;;;13.90;99.90;;;13.56;100.00;101512.69;4169289;28;20021;-75
2021/09/12 06:41:49;;;;;;;6.00;2.53;;;14.00;99.90;;;13.59;100.00;101506.28;4162801;28;20061;-76
2021/09/12 06:43:50;;;;;;;3.22;2.20;;;14.00;99.90;;;13.74;100.00;101549.75;4182246;28;20068;-76
2021/09/12 06:45:51;;;;;;;3.05;2.00;;;14.10;99.90;;;13.49;100.00;101516.13;4168687;28;20448;-76
2021/09/12 06:47:54;;;;;;;4.10;2.53;;;14.00;99.90;;;13.49;100.00;101527.56;4169177;28;20025;-76
2021/09/12 06:49:54;;;;;;;2.55;2.22;;;14.00;99.90;;;13.34;100.00;101494.69;4162607;28;20029;-75
2021/09/12 06:51:56;;;;;;;2.88;1.88;;;14.00;99.90;;;13.40;100.00;101509.13;4168929;28;20025;-76
2021/09/12 06:53:56;;;;;;;3.03;2.42;;;14.00;99.90;;;13.33;100.00;101498.31;4172371;28;20033;-75
2021/09/12 06:55:57;;;;;;;3.08;2.17;;;14.00;99.90;;;13.51;100.00;101533.53;4185294;28;20550;-76
2021/09/12 06:57:58;;;;;;;3.15;1.67;;;14.00;99.90;;;13.54;100.00;101519.16;4185373;28;20048;-75
2021/09/12 06:59:59;;;;;;;4.55;1.80;;;14.00;99.90;;;13.70;100.00;101532.50;4168793;28;20045;-76
2021/09/12 07:02:00;;;;;;;2.25;1.70;;;14.00;99.90;;;13.66;100.00;101536.44;4169295;28;20467;-76
2021/09/12 07:04:01;;;;;;;3.20;2.10;;;14.10;99.90;;;13.55;100.00;101534.06;4157799;28;20519;-75
2021/09/12 07:06:02;;;;;;;4.22;2.00;;;14.10;99.90;;;13.54;100.00;101527.09;4178651;28;20109;-76
2021/09/12 07:08:04;;;;;;;4.28;2.00;;;14.10;99.90;;;13.40;100.00;101502.00;4169707;28;20100;-76
2021/09/12 07:10:06;;;;;;;2.05;1.85;;;14.10;99.90;;;13.61;100.00;101533.44;4167084;28;20112;-76
2021/09/12 07:12:08;;;;;;;2.92;2.03;;;14.10;99.90;;;13.69;100.00;101520.22;4157271;28;20029;-75
2021/09/12 07:14:09;;;;;;;3.58;1.95;;;14.20;99.90;;;13.93;100.00;101552.19;4160915;28;20156;-75
2021/09/12 07:16:10;;;;;;;4.03;1.92;;;14.30;99.90;;;13.98;100.00;101544.56;4181510;28;20028;-75
2021/09/12 07:18:11;;;;;;;1.92;1.73;;;14.40;99.90;;;14.02;100.00;101545.09;4184413;28;20029;-75
2021/09/12 07:20:13;;;;;;;2.08;1.80;;;14.40;99.90;;;14.09;100.00;101551.44;4186239;28;20513;-75
2021/09/12 07:22:14;;;;;;;4.13;2.22;;;14.50;99.90;;;14.26;100.00;101559.31;4184757;28;20032;-75
2021/09/12 07:24:15;;;;;;;3.38;1.88;;;14.60;99.90;;;14.28;100.00;101541.41;4168176;28;20429;-75
2021/09/12 07:26:16;;;;;;;3.25;2.60;;;14.70;99.90;;;14.46;100.00;101543.13;4184039;28;20040;-75
2021/09/12 07:28:17;;;;;;;3.63;2.60;;;14.80;99.90;;;14.61;99.31;101545.00;4181309;28;20033;-75
2021/09/12 07:30:18;;;;;;;3.63;1.77;;;14.80;99.90;;;14.56;99.97;101536.72;4169750;28;20033;-76
2021/09/12 07:32:19;;;;;;;2.97;2.33;;;14.90;99.90;;;14.62;99.25;101535.22;4151875;28;20037;-76
2021/09/12 07:34:20;;;;;;;3.70;2.33;;;14.90;99.90;;;14.69;98.83;101536.25;4169088;28;20025;-76
2021/09/12 07:36:20;;;;;;;2.42;2.10;;;15.00;99.90;;;14.71;99.39;101553.69;4169165;28;20082;-76
2021/09/12 07:38:21;;;;;;;2.67;1.52;;;15.10;99.90;;;14.68;100.00;101545.19;4167963;28;20053;-76
2021/09/12 07:40:22;;;;;;;1.75;1.60;;;15.10;99.90;;;14.57;100.00;101526.94;4178348;28;20031;-76
2021/09/12 07:42:23;;;;;;;2.40;1.88;;;15.10;99.90;;;14.71;100.00;101548.34;4168873;28;20460;-75
2021/09/12 07:44:24;;;;;;;2.60;1.88;;;15.30;99.90;;;14.72;100.00;101542.06;4168869;28;20021;-75
2021/09/12 07:46:25;;;;;;;2.00;1.75;;;15.30;99.90;;;14.77;100.00;101544.22;4168030;28;20034;-75
2021/09/12 07:48:26;;;;;;;2.40;2.20;;;15.30;99.90;;;14.82;100.00;101518.81;4167610;28;20033;-75
2021/09/12 07:50:28;;;;;;;3.17;2.30;;;15.40;99.90;;;14.99;100.00;101537.44;4167971;28;20040;-75
2021/09/12 07:52:29;;;;;;;3.92;2.53;;;15.40;99.90;;;15.13;99.43;101544.75;4173191;28;20035;-75
2021/09/12 07:54:30;;;;;;;4.38;2.42;;;15.50;99.90;;;15.07;97.85;101529.47;4167714;28;20037;-75
2021/09/12 07:56:31;;;;;;;5.25;2.35;;;15.60;99.90;;;15.27;95.65;101534.28;4167705;28;20519;-75
2021/09/12 07:58:32;;;;;;;3.72;2.35;;;15.70;99.90;;;15.26;95.79;101548.56;4171392;28;20026;-75
2021/09/12 08:00:33;;;;;;;3.25;2.17;;;15.70;99.90;;;15.44;96.42;101548.41;4177191;28;20096;-75
2021/09/12 08:02:34;;;;;;;3.05;2.40;;;15.80;99.90;;;15.41;96.23;101562.03;4180017;28;20025;-75
2021/09/12 08:04:35;;;;;;;4.15;2.20;;;15.90;99.90;;;15.38;95.59;101547.22;4174781;28;20045;-75
2021/09/12 08:06:36;;;;;;;3.63;2.65;;;16.00;99.90;;;15.50;95.45;101551.22;4174392;28;20024;-75
2021/09/12 08:08:37;;;;;;;3.33;2.10;;;16.00;99.90;;;15.52;95.02;101539.59;4176687;28;20449;-75
2021/09/12 08:10:38;;;;;;;4.00;2.38;;;16.10;99.90;;;15.59;95.32;101553.91;4167577;28;20071;-75
2021/09/12 08:12:39;;;;;;;2.65;2.25;;;16.30;99.90;;;15.91;95.17;101570.63;4183930;28;20124;-75
2021/09/12 08:14:40;;;;;;;3.65;2.08;;;16.40;99.90;;;15.86;94.05;101542.88;4152874;28;20176;-75
2021/09/12 08:16:41;;;;;;;4.22;2.22;;;16.60;99.90;;;16.12;93.35;101550.59;4168286;28;20041;-75
2021/09/12 08:18:42;;;;;;;3.95;2.00;;;16.90;99.90;;;16.20;92.58;101543.41;4174668;28;20100;-75
2021/09/12 08:20:43;;;;;;;3.72;2.28;;;17.10;99.90;;;16.32;92.13;101535.84;4167114;28;20029;-75